ADDS METAR Data INFO
IDs: Format: Raw Decoded Include TAF

Data at: 0219 UTC 18 Jan 2018

KDRO 180153Z AUTO 03004KT 10SM CLR M02/M08 A3031 RMK AO2 SLP327 T10171083
KDRO 180053Z AUTO 26004KT 10SM CLR 02/M07 A3029 RMK AO2 SLP307 T00171072
KDRO 172353Z AUTO 25007KT 10SM CLR 04/M07 A3028 RMK AO2 SLP295 T00441072 10061 21011 55002
KDRO 172253Z AUTO 22004KT 10SM CLR 06/M07 A3027 RMK AO2 SLP282 T00611072
KDRO 172153Z AUTO 00000KT 10SM CLR 06/M07 A3027 RMK AO2 SLP283 T00611072
KDRO 172053Z AUTO 24005KT 10SM CLR 04/M08 A3029 RMK AO2 SLP291 T00441078 56023
KDRO 171953Z AUTO VRB03KT 10SM CLR 03/M07 A3030 RMK AO2 SLP296 T00331072
KDRO 171853Z AUTO 28004KT 10SM CLR 02/M07 A3034 RMK AO2 SLP313 T00171067
KDRO 171753Z AUTO 00000KT 10SM CLR M01/M06 A3037 RMK AO2 SLP327 T10111061 11011 21122 50005
KDRO 171653Z AUTO 13003KT 10SM CLR M04/M07 A3038 RMK AO2 SLP337 T10391072
KDRO 171553Z AUTO 00000KT 10SM CLR M07/M09 A3036 RMK AO2 SLP338 T10671089
KDRO 171453Z AUTO 00000KT 10SM CLR M11/M11 A3035 RMK AO2 SLP343 T11061111 53007
KDRO 171353Z AUTO 05005KT 10SM CLR M12/M13 A3033 RMK AO2 SLP333 T11221133
KDRO 171253Z AUTO 00000KT 10SM CLR M11/M12 A3033 RMK AO2 SLP318 T11061117
KDRO 171153Z AUTO 05003KT 10SM CLR M11/M13 A3033 RMK AO2 SLP315 T11111128 11056 21111 56004
KDRO 171053Z AUTO 03003KT 10SM CLR M10/M11 A3033 RMK AO2 SLP308 T11001111
KDRO 170953Z AUTO 00000KT 10SM CLR M09/M11 A3034 RMK AO2 SLP313 T10941111
KDRO 170853Z AUTO 00000KT 10SM CLR M09/M11 A3034 RMK AO2 SLP311 T10891106 56004
KDRO 170753Z AUTO 03003KT 10SM CLR M08/M09 A3034 RMK AO2 SLP311 T10781094
KDRO 170653Z AUTO 00000KT 10SM CLR M08/M09 A3035 RMK AO2 SLP316 T10781094 400441100
KDRO 170553Z AUTO 02005KT 10SM CLR M06/M08 A3035 RMK AO2 SLP322 T10611083 10028 21072 53007
KDRO 170453Z AUTO 03005KT 10SM CLR M05/M08 A3035 RMK AO2 SLP319 T10501078
KDRO 170353Z AUTO 00000KT 10SM CLR M05/M08 A3033 RMK AO2 SLP323 T10501083
KDRO 170253Z AUTO 02005KT 10SM CLR M04/M08 A3033 RMK AO2 SLP326 T10391078 51009
KDRO 170153Z AUTO 00000KT 10SM CLR M01/M07 A3032 RMK AO2 SLP319 T10111067
KDRO 170053Z AUTO 20003KT 10SM CLR 01/M07 A3031 RMK AO2 SLP301 T00111067
KDRO 162353Z AUTO 24004KT 10SM CLR 03/M06 A3030 RMK AO2 SLP295 T00281061 10044 21006 56005
KDRO 162253Z AUTO 25005KT 10SM CLR 04/M06 A3030 RMK AO2 SLP289 T00391061
KDRO 162153Z AUTO 23004KT 10SM CLR 04/M06 A3031 RMK AO2 SLP291 T00391056
KDRO 162053Z AUTO VRB03KT 10SM CLR 04/M06 A3031 RMK AO2 SLP298 T00391056 56022
KDRO 161953Z AUTO 00000KT 10SM CLR 03/M06 A3033 RMK AO2 SLP303 T00281056
KDRO 161853Z AUTO 01003KT 10SM CLR 02/M06 A3036 RMK AO2 SLP315 T00171056
KDRO 161753Z AUTO VRB03KT 10SM CLR M01/M06 A3039 RMK AO2 SLP332 T10061061 10000 21100 50007
KDRO 161653Z AUTO 13005KT 10SM CLR M02/M06 A3040 RMK AO2 SLP338 T10171061
KDRO 161553Z AUTO 09004KT 10SM CLR M05/M07 A3038 RMK AO2 SLP335 T10501072
KDRO 161453Z AUTO 05005KT 10SM CLR M08/M09 A3037 RMK AO2 SLP332 T10781094 51011